Share

Pago Pago, AS

Bradshaw Army Air Field (PHSF) Elev 6191 ft | 19.76 °N, 155.55 °W | Change Station

Current weather conditions updated 3 minutes ago

Partly Cloudy
Partly Cloudy
61 °F
Feels Like 61 °F
N
12
Wind Variable Wind from SSE
Gusts 18 mph
Sunrise 6:29 AM
Sunset 6:14 PM
Moon Waning Gibbous

Today is forecast to be nearly the same temperature as yesterday. A few thunderstorms possible.

Pressure 30.04 in
Visibility 12.0 miles
Clouds Few 3400 ft
Dew Point 45 °F
Humidity 56%
Rainfall 0.00 in
Snow Depth Not available.
UV 2 out of 16
Pollen Not available.
Air Quality Not available.
Flu Activity
METAR PHSF 180256Z AUTO 15010G16KT 12SM FEW034 16/07 A3035 RMK AO2 SLP173 T01610073 55005

More Conditions Fewer Conditions

Pressure 30.04 in
Visibility 12.0 miles
Clouds Few 3400 ft
Dew Point 45 °F
Humidity 56%
Rainfall 0.00 in
Snow Depth Not available.
UV 2 out of 16
Pollen Not available.
Air Quality Not available.
Flu Activity
METAR PHSF 180256Z AUTO 15010G16KT 12SM FEW034 16/07 A3035 RMK AO2 SLP173 T01610073 55005

More Conditions Fewer Conditions

10-Day Forecast

Almanac

Astronomy

Apr. 17, 2014 Rise Set
Actual Time 6:29 AM SST 6:14 PM SST
Civil Twilight 6:08 AM SST 6:36 PM SST
Nautical Twilight 5:43 AM SST 7:01 PM SST
Astronomical Twilight 5:18 AM SST 7:26 PM SST
Moon 8:36 PM SST (4/17) 8:46 AM SST (4/17)
Length of Visible Light 12h 28m
Length of Day
11h 44m
Tomorrow will be 0m 43s shorter.
Waning Gibbous, 91% of the Moon is Illuminated
Today
Waning Gibbous
Apr 22
Last Quarter
Apr 29
New
May 6
First Quarter
May 14
Full

Community

  • SUNRISE THROUGH THE TREES.
    SUNRISE THROUGH THE TREES.
  • Dog Wood Blossoms
    Dog Wood Blossoms
  • Morning Light
    Morning Light
  • New Day
    New Day
  • Lake Michigan Sunrise
    Lake Michigan Sunrise

WunderPhotos

Upload Photos

1,702,221 photos uploaded!

WunderBlogs® & News

Nearby

Snow Depth

Station Depth Elevation
No new snow has been reported.

Coastal Water Temperatures

Place Temperature
No Stations Reporting

Earthquake Activity

City Distance Mag. Time & Date
No recent earthquake activity has been reported nearby.
Minimum magnitude displayed is 2.5.

Nearby Weather Stations

There are no personal weather stations in this area.

What do you think?

We're not finished. Please let us know what you like, what you don't like, and what you are still missing.